This is the latest recevied weather packets stored in our database for station/object CA3EAP-13. If no packets are shown the sender has not sent any weather packets the latest 10 day(s).
| Time | Temp. | Humidity | Pressure | Rain* | Wind** | Luminosity | Snow |
|---|---|---|---|---|---|---|---|
| 1777184704 | 15.56° C | 45% | 1019.3 hPa | - | - | - | - |
| 1777184104 | 16.11° C | 44% | 1019.3 hPa | - | - | - | - |
| 1777183504 | 16.11° C | 45% | 1019.4 hPa | - | - | - | - |
| 1777182904 | 16.11° C | 44% | 1019.5 hPa | - | - | - | - |
| 1777182304 | 16.11° C | 45% | 1019.6 hPa | - | - | - | - |
| 1777181704 | 16.11° C | 47% | 1019.8 hPa | - | - | - | - |
| 1777181104 | 15.56° C | 47% | 1019.9 hPa | - | - | - | - |
| 1777180504 | 15.56° C | 47% | 1019.9 hPa | - | - | - | - |
| 1777179903 | 16.11° C | 46% | 1019.7 hPa | - | - | - | - |
| 1777179303 | 15.56° C | 47% | 1019.8 hPa | - | - | - | - |
| 1777178703 | 16.11° C | 45% | 1019.6 hPa | - | - | - | - |
| 1777178104 | 16.11° C | 45% | 1019.8 hPa | - | - | - | - |
| 1777177504 | 16.11° C | 45% | 1019.8 hPa | - | - | - | - |
| 1777176903 | 16.11° C | 46% | 1019.9 hPa | - | - | - | - |
| 1777176304 | 15.56° C | 47% | 1020.1 hPa | - | - | - | - |
| 1777175704 | 16.67° C | 44% | 1019.8 hPa | - | - | - | - |
| 1777175104 | 16.11° C | 44% | 1019.7 hPa | - | - | - | - |
| 1777174504 | 16.67° C | 43% | 1019.6 hPa | - | - | - | - |
| 1777173904 | 16.67° C | 43% | 1019.5 hPa | - | - | - | - |
| 1777173304 | 16.67° C | 43% | 1019.6 hPa | - | - | - | - |
| 1777172703 | 17.22° C | 42% | 1019.5 hPa | - | - | - | - |
| 1777172104 | 17.22° C | 42% | 1019.6 hPa | - | - | - | - |
| 1777171504 | 17.22° C | 42% | 1019.7 hPa | - | - | - | - |
| 1777170904 | 17.22° C | 41% | 1019.7 hPa | - | - | - | - |
| 1777170304 | 17.22° C | 41% | 1019.8 hPa | - | - | - | - |
* Rain since midnight (hover to see other rain measurements)
** Current wind speed in m/s (hover to see current wind gust speed)